sensor_id;sensor_type;location;lat;lon;timestamp;P1;durP1;ratioP1;P2;durP2;ratioP2
74293;SDS011;64044;59.904;10.738;2023-03-14T00:00:48;0.43;;;0.40;;
74293;SDS011;64044;59.904;10.738;2023-03-14T00:03:13;0.47;;;0.40;;
74293;SDS011;64044;59.904;10.738;2023-03-14T00:05:39;0.95;;;0.63;;
74293;SDS011;64044;59.904;10.738;2023-03-14T00:08:05;0.73;;;0.52;;
74293;SDS011;64044;59.904;10.738;2023-03-14T00:10:30;1.70;;;0.90;;
74293;SDS011;64044;59.904;10.738;2023-03-14T00:12:56;0.60;;;0.45;;
74293;SDS011;64044;59.904;10.738;2023-03-14T00:15:22;1.23;;;0.60;;
74293;SDS011;64044;59.904;10.738;2023-03-14T00:17:48;0.40;;;0.28;;
74293;SDS011;64044;59.904;10.738;2023-03-14T00:23:06;1.15;;;0.70;;
74293;SDS011;64044;59.904;10.738;2023-03-14T00:25:31;1.27;;;0.60;;
74293;SDS011;64044;59.904;10.738;2023-03-14T00:27:57;1.05;;;0.95;;
74293;SDS011;64044;59.904;10.738;2023-03-14T00:30:23;1.05;;;0.50;;
74293;SDS011;64044;59.904;10.738;2023-03-14T00:32:49;1.05;;;0.47;;
74293;SDS011;64044;59.904;10.738;2023-03-14T00:35:14;1.40;;;0.55;;
74293;SDS011;64044;59.904;10.738;2023-03-14T00:37:40;1.27;;;0.30;;
74293;SDS011;64044;59.904;10.738;2023-03-14T00:40:06;0.65;;;0.50;;
74293;SDS011;64044;59.904;10.738;2023-03-14T00:42:33;2.15;;;0.60;;
74293;SDS011;64044;59.904;10.738;2023-03-14T00:44:59;0.80;;;0.40;;
74293;SDS011;64044;59.904;10.738;2023-03-14T00:47:25;1.17;;;0.70;;
74293;SDS011;64044;59.904;10.738;2023-03-14T00:49:51;0.47;;;0.43;;
74293;SDS011;64044;59.904;10.738;2023-03-14T00:52:16;1.30;;;1.00;;
74293;SDS011;64044;59.904;10.738;2023-03-14T00:54:42;0.60;;;0.60;;
74293;SDS011;64044;59.904;10.738;2023-03-14T00:57:08;0.70;;;0.40;;
74293;SDS011;64044;59.904;10.738;2023-03-14T00:59:34;0.50;;;0.50;;
74293;SDS011;64044;59.904;10.738;2023-03-14T01:01:59;0.73;;;0.40;;
74293;SDS011;64044;59.904;10.738;2023-03-14T01:04:26;3.50;;;1.58;;
74293;SDS011;64044;59.904;10.738;2023-03-14T01:06:52;1.88;;;1.00;;
74293;SDS011;64044;59.904;10.738;2023-03-14T01:09:17;1.52;;;0.82;;
74293;SDS011;64044;59.904;10.738;2023-03-14T01:11:43;2.40;;;0.75;;
74293;SDS011;64044;59.904;10.738;2023-03-14T01:14:11;1.40;;;0.80;;
74293;SDS011;64044;59.904;10.738;2023-03-14T01:16:38;3.30;;;1.00;;
74293;SDS011;64044;59.904;10.738;2023-03-14T01:19:03;2.03;;;0.90;;
74293;SDS011;64044;59.904;10.738;2023-03-14T01:21:31;2.15;;;0.80;;
74293;SDS011;64044;59.904;10.738;2023-03-14T01:23:58;1.70;;;1.00;;
74293;SDS011;64044;59.904;10.738;2023-03-14T01:26:25;2.10;;;0.90;;
74293;SDS011;64044;59.904;10.738;2023-03-14T01:28:54;2.00;;;0.93;;
74293;SDS011;64044;59.904;10.738;2023-03-14T01:31:21;2.10;;;1.20;;
74293;SDS011;64044;59.904;10.738;2023-03-14T01:33:47;3.63;;;1.30;;
74293;SDS011;64044;59.904;10.738;2023-03-14T01:36:13;2.30;;;0.95;;
74293;SDS011;64044;59.904;10.738;2023-03-14T01:38:39;3.45;;;1.02;;
74293;SDS011;64044;59.904;10.738;2023-03-14T01:41:06;3.70;;;1.20;;
74293;SDS011;64044;59.904;10.738;2023-03-14T01:43:33;2.00;;;1.20;;
74293;SDS011;64044;59.904;10.738;2023-03-14T01:48:31;2.42;;;1.10;;
74293;SDS011;64044;59.904;10.738;2023-03-14T01:51:08;1.98;;;1.00;;
74293;SDS011;64044;59.904;10.738;2023-03-14T01:53:37;2.72;;;1.23;;
74293;SDS011;64044;59.904;10.738;2023-03-14T01:56:05;3.35;;;1.30;;
74293;SDS011;64044;59.904;10.738;2023-03-14T01:58:32;3.20;;;1.60;;
74293;SDS011;64044;59.904;10.738;2023-03-14T02:00:59;2.85;;;1.38;;
74293;SDS011;64044;59.904;10.738;2023-03-14T02:03:27;2.63;;;1.27;;
74293;SDS011;64044;59.904;10.738;2023-03-14T02:05:56;1.73;;;0.90;;
74293;SDS011;64044;59.904;10.738;2023-03-14T02:08:25;2.30;;;0.90;;
74293;SDS011;64044;59.904;10.738;2023-03-14T02:10:52;1.33;;;0.65;;
74293;SDS011;64044;59.904;10.738;2023-03-14T02:13:19;1.98;;;0.95;;
74293;SDS011;64044;59.904;10.738;2023-03-14T02:15:46;1.42;;;0.68;;
74293;SDS011;64044;59.904;10.738;2023-03-14T02:18:12;2.10;;;0.70;;
74293;SDS011;64044;59.904;10.738;2023-03-14T02:23:31;3.13;;;1.52;;
74293;SDS011;64044;59.904;10.738;2023-03-14T02:26:11;2.05;;;0.70;;
74293;SDS011;64044;59.904;10.738;2023-03-14T02:28:58;2.03;;;1.10;;
74293;SDS011;64044;59.904;10.738;2023-03-14T02:31:24;1.50;;;0.80;;
74293;SDS011;64044;59.904;10.738;2023-03-14T02:33:50;1.10;;;0.80;;
74293;SDS011;64044;59.904;10.738;2023-03-14T02:36:16;1.48;;;0.80;;
74293;SDS011;64044;59.904;10.738;2023-03-14T02:41:29;1.08;;;0.73;;
74293;SDS011;64044;59.904;10.738;2023-03-14T02:43:55;1.70;;;0.80;;
74293;SDS011;64044;59.904;10.738;2023-03-14T02:46:21;2.65;;;0.90;;
74293;SDS011;64044;59.904;10.738;2023-03-14T02:48:53;1.65;;;1.00;;
74293;SDS011;64044;59.904;10.738;2023-03-14T02:51:28;3.90;;;0.90;;
74293;SDS011;64044;59.904;10.738;2023-03-14T02:53:54;4.82;;;1.70;;
74293;SDS011;64044;59.904;10.738;2023-03-14T02:56:20;5.47;;;2.13;;
74293;SDS011;64044;59.904;10.738;2023-03-14T02:58:46;6.35;;;2.00;;
74293;SDS011;64044;59.904;10.738;2023-03-14T03:01:11;2.83;;;1.30;;
74293;SDS011;64044;59.904;10.738;2023-03-14T03:03:37;3.35;;;1.48;;
74293;SDS011;64044;59.904;10.738;2023-03-14T03:06:03;2.03;;;1.00;;
74293;SDS011;64044;59.904;10.738;2023-03-14T03:08:29;2.03;;;1.10;;
74293;SDS011;64044;59.904;10.738;2023-03-14T03:10:55;3.45;;;1.13;;
74293;SDS011;64044;59.904;10.738;2023-03-14T03:13:22;3.13;;;1.65;;
74293;SDS011;64044;59.904;10.738;2023-03-14T03:15:47;3.20;;;1.38;;
74293;SDS011;64044;59.904;10.738;2023-03-14T03:18:13;3.30;;;1.33;;
74293;SDS011;64044;59.904;10.738;2023-03-14T03:20:39;2.83;;;1.25;;
74293;SDS011;64044;59.904;10.738;2023-03-14T03:23:04;1.65;;;1.23;;
74293;SDS011;64044;59.904;10.738;2023-03-14T03:25:30;2.47;;;1.10;;
74293;SDS011;64044;59.904;10.738;2023-03-14T03:27:56;1.58;;;0.93;;
74293;SDS011;64044;59.904;10.738;2023-03-14T03:30:22;1.98;;;1.00;;
74293;SDS011;64044;59.904;10.738;2023-03-14T03:32:48;1.65;;;0.95;;
74293;SDS011;64044;59.904;10.738;2023-03-14T03:35:14;1.67;;;1.05;;
74293;SDS011;64044;59.904;10.738;2023-03-14T03:37:40;2.08;;;0.90;;
74293;SDS011;64044;59.904;10.738;2023-03-14T03:40:06;1.85;;;1.00;;
74293;SDS011;64044;59.904;10.738;2023-03-14T03:42:33;2.05;;;0.93;;
74293;SDS011;64044;59.904;10.738;2023-03-14T03:44:59;2.13;;;1.10;;
74293;SDS011;64044;59.904;10.738;2023-03-14T03:47:26;2.78;;;1.15;;
74293;SDS011;64044;59.904;10.738;2023-03-14T03:49:52;4.18;;;1.02;;
74293;SDS011;64044;59.904;10.738;2023-03-14T03:52:18;1.35;;;0.85;;
74293;SDS011;64044;59.904;10.738;2023-03-14T03:54:44;1.65;;;1.10;;
74293;SDS011;64044;59.904;10.738;2023-03-14T03:57:09;2.35;;;1.10;;
74293;SDS011;64044;59.904;10.738;2023-03-14T03:59:35;2.42;;;1.20;;
74293;SDS011;64044;59.904;10.738;2023-03-14T04:02:01;2.80;;;1.40;;
74293;SDS011;64044;59.904;10.738;2023-03-14T04:04:27;2.03;;;1.00;;
74293;SDS011;64044;59.904;10.738;2023-03-14T04:06:52;2.13;;;1.10;;
74293;SDS011;64044;59.904;10.738;2023-03-14T04:09:18;3.95;;;1.40;;
74293;SDS011;64044;59.904;10.738;2023-03-14T04:11:44;8.93;;;3.10;;
74293;SDS011;64044;59.904;10.738;2023-03-14T04:14:09;2.72;;;1.27;;
74293;SDS011;64044;59.904;10.738;2023-03-14T04:16:35;3.28;;;1.42;;
74293;SDS011;64044;59.904;10.738;2023-03-14T04:19:01;3.85;;;1.40;;
74293;SDS011;64044;59.904;10.738;2023-03-14T04:21:27;4.75;;;1.23;;
74293;SDS011;64044;59.904;10.738;2023-03-14T04:23:53;2.75;;;1.10;;
74293;SDS011;64044;59.904;10.738;2023-03-14T04:26:19;3.25;;;1.83;;
74293;SDS011;64044;59.904;10.738;2023-03-14T04:28:45;2.00;;;1.00;;
74293;SDS011;64044;59.904;10.738;2023-03-14T04:31:15;4.85;;;1.77;;
74293;SDS011;64044;59.904;10.738;2023-03-14T04:33:43;1.90;;;0.85;;
74293;SDS011;64044;59.904;10.738;2023-03-14T04:36:09;2.47;;;1.00;;
74293;SDS011;64044;59.904;10.738;2023-03-14T04:38:35;3.03;;;1.20;;
74293;SDS011;64044;59.904;10.738;2023-03-14T04:41:01;3.45;;;1.23;;
74293;SDS011;64044;59.904;10.738;2023-03-14T04:43:27;2.65;;;0.90;;
74293;SDS011;64044;59.904;10.738;2023-03-14T04:45:53;3.10;;;1.25;;
74293;SDS011;64044;59.904;10.738;2023-03-14T04:48:19;2.50;;;1.20;;
74293;SDS011;64044;59.904;10.738;2023-03-14T04:50:48;1.85;;;1.10;;
74293;SDS011;64044;59.904;10.738;2023-03-14T04:53:15;2.55;;;1.23;;
74293;SDS011;64044;59.904;10.738;2023-03-14T04:55:41;1.77;;;1.05;;
74293;SDS011;64044;59.904;10.738;2023-03-14T04:58:07;3.17;;;0.98;;
74293;SDS011;64044;59.904;10.738;2023-03-14T05:00:33;3.20;;;1.10;;
74293;SDS011;64044;59.904;10.738;2023-03-14T05:02:59;2.42;;;1.17;;
74293;SDS011;64044;59.904;10.738;2023-03-14T05:05:25;2.30;;;1.10;;
74293;SDS011;64044;59.904;10.738;2023-03-14T05:07:50;4.85;;;0.88;;
74293;SDS011;64044;59.904;10.738;2023-03-14T05:10:16;1.40;;;0.98;;
74293;SDS011;64044;59.904;10.738;2023-03-14T05:12:42;2.35;;;1.38;;
74293;SDS011;64044;59.904;10.738;2023-03-14T05:15:08;1.42;;;0.88;;
74293;SDS011;64044;59.904;10.738;2023-03-14T05:17:34;2.38;;;1.20;;
74293;SDS011;64044;59.904;10.738;2023-03-14T05:20:00;2.42;;;1.58;;
74293;SDS011;64044;59.904;10.738;2023-03-14T05:22:26;5.45;;;1.50;;
74293;SDS011;64044;59.904;10.738;2023-03-14T05:24:52;2.20;;;1.00;;
74293;SDS011;64044;59.904;10.738;2023-03-14T05:27:21;1.67;;;0.95;;
74293;SDS011;64044;59.904;10.738;2023-03-14T05:29:48;5.97;;;1.65;;
74293;SDS011;64044;59.904;10.738;2023-03-14T05:32:13;5.22;;;1.60;;
74293;SDS011;64044;59.904;10.738;2023-03-14T05:34:39;5.13;;;1.45;;
74293;SDS011;64044;59.904;10.738;2023-03-14T05:37:05;4.80;;;1.70;;
74293;SDS011;64044;59.904;10.738;2023-03-14T05:39:30;4.10;;;1.98;;
74293;SDS011;64044;59.904;10.738;2023-03-14T05:41:56;7.38;;;5.00;;
74293;SDS011;64044;59.904;10.738;2023-03-14T05:44:22;6.75;;;3.83;;
74293;SDS011;64044;59.904;10.738;2023-03-14T05:46:48;5.78;;;3.10;;
74293;SDS011;64044;59.904;10.738;2023-03-14T05:49:13;26.17;;;12.07;;
74293;SDS011;64044;59.904;10.738;2023-03-14T05:51:39;28.10;;;16.17;;
74293;SDS011;64044;59.904;10.738;2023-03-14T05:54:05;46.63;;;28.55;;
74293;SDS011;64044;59.904;10.738;2023-03-14T05:56:32;38.88;;;27.80;;
74293;SDS011;64044;59.904;10.738;2023-03-14T05:58:57;29.00;;;19.70;;
74293;SDS011;64044;59.904;10.738;2023-03-14T06:01:23;18.67;;;13.73;;
74293;SDS011;64044;59.904;10.738;2023-03-14T06:03:49;16.70;;;11.05;;
74293;SDS011;64044;59.904;10.738;2023-03-14T06:06:15;17.90;;;11.07;;
74293;SDS011;64044;59.904;10.738;2023-03-14T06:08:41;16.10;;;9.10;;
74293;SDS011;64044;59.904;10.738;2023-03-14T06:11:07;12.65;;;7.13;;
74293;SDS011;64044;59.904;10.738;2023-03-14T06:13:34;13.40;;;6.85;;
74293;SDS011;64044;59.904;10.738;2023-03-14T06:15:59;22.50;;;13.82;;
74293;SDS011;64044;59.904;10.738;2023-03-14T06:18:25;21.02;;;9.50;;
74293;SDS011;64044;59.904;10.738;2023-03-14T06:20:54;13.25;;;6.80;;
74293;SDS011;64044;59.904;10.738;2023-03-14T06:23:21;8.25;;;4.13;;
74293;SDS011;64044;59.904;10.738;2023-03-14T06:25:46;7.47;;;3.40;;
74293;SDS011;64044;59.904;10.738;2023-03-14T06:28:12;11.45;;;3.90;;
74293;SDS011;64044;59.904;10.738;2023-03-14T06:30:38;4.75;;;2.20;;
74293;SDS011;64044;59.904;10.738;2023-03-14T06:33:04;13.40;;;3.50;;
74293;SDS011;64044;59.904;10.738;2023-03-14T06:35:29;12.18;;;3.42;;
74293;SDS011;64044;59.904;10.738;2023-03-14T06:37:55;11.85;;;3.55;;
74293;SDS011;64044;59.904;10.738;2023-03-14T06:40:21;14.98;;;3.13;;
74293;SDS011;64044;59.904;10.738;2023-03-14T06:42:47;8.27;;;2.95;;
74293;SDS011;64044;59.904;10.738;2023-03-14T06:45:13;13.70;;;3.47;;
74293;SDS011;64044;59.904;10.738;2023-03-14T06:47:39;10.32;;;2.40;;
74293;SDS011;64044;59.904;10.738;2023-03-14T06:50:05;10.82;;;2.97;;
74293;SDS011;64044;59.904;10.738;2023-03-14T06:52:32;7.43;;;1.65;;
74293;SDS011;64044;59.904;10.738;2023-03-14T06:54:58;6.82;;;1.85;;
74293;SDS011;64044;59.904;10.738;2023-03-14T06:57:23;5.20;;;1.33;;
74293;SDS011;64044;59.904;10.738;2023-03-14T06:59:49;6.60;;;1.50;;
74293;SDS011;64044;59.904;10.738;2023-03-14T07:02:15;5.70;;;1.35;;
74293;SDS011;64044;59.904;10.738;2023-03-14T07:04:41;4.13;;;1.70;;
74293;SDS011;64044;59.904;10.738;2023-03-14T07:07:06;9.00;;;2.85;;
74293;SDS011;64044;59.904;10.738;2023-03-14T07:09:32;9.07;;;2.97;;
74293;SDS011;64044;59.904;10.738;2023-03-14T07:11:59;4.70;;;1.40;;
74293;SDS011;64044;59.904;10.738;2023-03-14T07:14:24;2.25;;;0.98;;
74293;SDS011;64044;59.904;10.738;2023-03-14T07:16:50;2.22;;;1.05;;
74293;SDS011;64044;59.904;10.738;2023-03-14T07:19:16;3.00;;;1.05;;
74293;SDS011;64044;59.904;10.738;2023-03-14T07:21:41;5.70;;;1.80;;
74293;SDS011;64044;59.904;10.738;2023-03-14T07:24:07;6.25;;;1.95;;
74293;SDS011;64044;59.904;10.738;2023-03-14T07:26:33;4.22;;;1.60;;
74293;SDS011;64044;59.904;10.738;2023-03-14T07:28:59;7.68;;;1.58;;
74293;SDS011;64044;59.904;10.738;2023-03-14T07:31:24;4.93;;;1.80;;
74293;SDS011;64044;59.904;10.738;2023-03-14T07:33:50;3.95;;;1.20;;
74293;SDS011;64044;59.904;10.738;2023-03-14T07:36:16;4.03;;;1.60;;
74293;SDS011;64044;59.904;10.738;2023-03-14T07:38:42;10.52;;;2.63;;
74293;SDS011;64044;59.904;10.738;2023-03-14T07:41:08;5.20;;;1.88;;
74293;SDS011;64044;59.904;10.738;2023-03-14T07:43:33;2.05;;;1.20;;
74293;SDS011;64044;59.904;10.738;2023-03-14T07:45:59;4.30;;;1.45;;
74293;SDS011;64044;59.904;10.738;2023-03-14T07:48:25;9.65;;;1.40;;
74293;SDS011;64044;59.904;10.738;2023-03-14T07:50:52;9.48;;;1.33;;
74293;SDS011;64044;59.904;10.738;2023-03-14T07:53:18;10.18;;;2.00;;
74293;SDS011;64044;59.904;10.738;2023-03-14T07:55:45;10.10;;;2.03;;
74293;SDS011;64044;59.904;10.738;2023-03-14T07:58:11;12.68;;;2.45;;
74293;SDS011;64044;59.904;10.738;2023-03-14T08:00:37;11.95;;;2.38;;
74293;SDS011;64044;59.904;10.738;2023-03-14T08:03:03;8.73;;;1.90;;
74293;SDS011;64044;59.904;10.738;2023-03-14T08:05:28;4.22;;;1.85;;
74293;SDS011;64044;59.904;10.738;2023-03-14T08:07:54;8.80;;;1.70;;
74293;SDS011;64044;59.904;10.738;2023-03-14T08:10:20;7.43;;;1.75;;
74293;SDS011;64044;59.904;10.738;2023-03-14T08:12:48;6.53;;;2.25;;
74293;SDS011;64044;59.904;10.738;2023-03-14T08:15:14;1.33;;;1.00;;
74293;SDS011;64044;59.904;10.738;2023-03-14T08:17:40;4.82;;;1.02;;
74293;SDS011;64044;59.904;10.738;2023-03-14T08:20:05;3.15;;;1.33;;
74293;SDS011;64044;59.904;10.738;2023-03-14T08:22:33;1.95;;;1.10;;
74293;SDS011;64044;59.904;10.738;2023-03-14T08:24:58;3.63;;;1.30;;
74293;SDS011;64044;59.904;10.738;2023-03-14T08:27:24;5.45;;;1.08;;
74293;SDS011;64044;59.904;10.738;2023-03-14T08:29:50;2.20;;;1.10;;
74293;SDS011;64044;59.904;10.738;2023-03-14T08:32:15;3.58;;;1.33;;
74293;SDS011;64044;59.904;10.738;2023-03-14T08:34:41;1.13;;;0.85;;
74293;SDS011;64044;59.904;10.738;2023-03-14T08:37:07;6.15;;;1.77;;
74293;SDS011;64044;59.904;10.738;2023-03-14T08:39:32;1.65;;;1.05;;
74293;SDS011;64044;59.904;10.738;2023-03-14T08:41:58;3.15;;;1.20;;
74293;SDS011;64044;59.904;10.738;2023-03-14T08:44:28;2.57;;;1.33;;
74293;SDS011;64044;59.904;10.738;2023-03-14T08:46:54;5.70;;;1.30;;
74293;SDS011;64044;59.904;10.738;2023-03-14T08:49:20;10.27;;;2.30;;
74293;SDS011;64044;59.904;10.738;2023-03-14T08:51:46;5.05;;;1.45;;
74293;SDS011;64044;59.904;10.738;2023-03-14T08:54:11;3.35;;;1.40;;
74293;SDS011;64044;59.904;10.738;2023-03-14T08:56:37;7.07;;;1.83;;
74293;SDS011;64044;59.904;10.738;2023-03-14T08:59:03;6.30;;;1.75;;
74293;SDS011;64044;59.904;10.738;2023-03-14T09:01:29;11.60;;;2.42;;
74293;SDS011;64044;59.904;10.738;2023-03-14T09:03:55;5.93;;;1.15;;
74293;SDS011;64044;59.904;10.738;2023-03-14T09:06:21;11.07;;;2.38;;
74293;SDS011;64044;59.904;10.738;2023-03-14T09:08:46;4.78;;;1.88;;
74293;SDS011;64044;59.904;10.738;2023-03-14T09:11:12;4.00;;;1.50;;
74293;SDS011;64044;59.904;10.738;2023-03-14T09:13:39;4.43;;;1.77;;
74293;SDS011;64044;59.904;10.738;2023-03-14T09:16:05;1.73;;;0.75;;
74293;SDS011;64044;59.904;10.738;2023-03-14T09:18:32;1.38;;;0.65;;
74293;SDS011;64044;59.904;10.738;2023-03-14T09:20:58;1.25;;;0.55;;
74293;SDS011;64044;59.904;10.738;2023-03-14T09:23:23;0.70;;;0.47;;
74293;SDS011;64044;59.904;10.738;2023-03-14T09:25:53;2.00;;;0.45;;
74293;SDS011;64044;59.904;10.738;2023-03-14T09:28:22;1.17;;;0.32;;
74293;SDS011;64044;59.904;10.738;2023-03-14T09:30:48;0.70;;;0.30;;
74293;SDS011;64044;59.904;10.738;2023-03-14T09:33:14;0.65;;;0.43;;
74293;SDS011;64044;59.904;10.738;2023-03-14T09:35:41;1.10;;;0.30;;
74293;SDS011;64044;59.904;10.738;2023-03-14T09:38:07;0.50;;;0.30;;
74293;SDS011;64044;59.904;10.738;2023-03-14T09:40:36;1.27;;;0.40;;
74293;SDS011;64044;59.904;10.738;2023-03-14T09:43:02;0.73;;;0.40;;
74293;SDS011;64044;59.904;10.738;2023-03-14T09:45:31;3.67;;;0.40;;
74293;SDS011;64044;59.904;10.738;2023-03-14T09:48:00;0.25;;;0.25;;
74293;SDS011;64044;59.904;10.738;2023-03-14T09:50:30;0.90;;;0.20;;
74293;SDS011;64044;59.904;10.738;2023-03-14T09:53:04;0.40;;;0.40;;
74293;SDS011;64044;59.904;10.738;2023-03-14T09:55:34;3.90;;;0.43;;
74293;SDS011;64044;59.904;10.738;2023-03-14T09:58:02;5.22;;;0.57;;
74293;SDS011;64044;59.904;10.738;2023-03-14T10:00:35;0.47;;;0.30;;
74293;SDS011;64044;59.904;10.738;2023-03-14T10:05:46;0.80;;;0.40;;
74293;SDS011;64044;59.904;10.738;2023-03-14T10:08:12;0.80;;;0.52;;
74293;SDS011;64044;59.904;10.738;2023-03-14T10:10:39;0.77;;;0.50;;
74293;SDS011;64044;59.904;10.738;2023-03-14T10:13:39;0.40;;;0.40;;
74293;SDS011;64044;59.904;10.738;2023-03-14T10:16:01;0.65;;;0.25;;
74293;SDS011;64044;59.904;10.738;2023-03-14T10:18:29;1.40;;;0.50;;
74293;SDS011;64044;59.904;10.738;2023-03-14T10:23:51;2.33;;;0.40;;
74293;SDS011;64044;59.904;10.738;2023-03-14T10:26:18;0.52;;;0.30;;
74293;SDS011;64044;59.904;10.738;2023-03-14T10:28:51;1.67;;;0.40;;
74293;SDS011;64044;59.904;10.738;2023-03-14T10:31:18;1.23;;;0.30;;
74293;SDS011;64044;59.904;10.738;2023-03-14T10:34:00;0.50;;;0.30;;
74293;SDS011;64044;59.904;10.738;2023-03-14T10:36:33;0.68;;;0.40;;
74293;SDS011;64044;59.904;10.738;2023-03-14T10:41:52;0.57;;;0.30;;
74293;SDS011;64044;59.904;10.738;2023-03-14T10:44:24;0.30;;;0.30;;
74293;SDS011;64044;59.904;10.738;2023-03-14T10:46:58;0.35;;;0.30;;
74293;SDS011;64044;59.904;10.738;2023-03-14T10:49:31;1.50;;;0.40;;
74293;SDS011;64044;59.904;10.738;2023-03-14T10:52:21;1.90;;;0.25;;
74293;SDS011;64044;59.904;10.738;2023-03-14T10:54:59;0.20;;;0.20;;
74293;SDS011;64044;59.904;10.738;2023-03-14T10:57:27;1.17;;;0.50;;
74293;SDS011;64044;59.904;10.738;2023-03-14T10:59:53;0.47;;;0.43;;
74293;SDS011;64044;59.904;10.738;2023-03-14T11:08:47;0.40;;;0.30;;
74293;SDS011;64044;59.904;10.738;2023-03-14T11:19:28;1.15;;;0.20;;
74293;SDS011;64044;59.904;10.738;2023-03-14T11:27:48;1.63;;;0.30;;
74293;SDS011;64044;59.904;10.738;2023-03-14T11:30:18;1.23;;;0.40;;
74293;SDS011;64044;59.904;10.738;2023-03-14T11:33:12;0.55;;;0.30;;
74293;SDS011;64044;59.904;10.738;2023-03-14T11:40:58;0.52;;;0.30;;
74293;SDS011;64044;59.904;10.738;2023-03-14T11:45:58;1.75;;;0.30;;
74293;SDS011;64044;59.904;10.738;2023-03-14T11:48:40;0.90;;;0.40;;
74293;SDS011;64044;59.904;10.738;2023-03-14T11:51:23;0.47;;;0.20;;
74293;SDS011;64044;59.904;10.738;2023-03-14T11:54:11;0.75;;;0.32;;
74293;SDS011;64044;59.904;10.738;2023-03-14T11:59:56;0.10;;;0.10;;
74293;SDS011;64044;59.904;10.738;2023-03-14T12:13:28;0.25;;;0.25;;
74293;SDS011;64044;59.904;10.738;2023-03-14T12:16:00;1.23;;;0.52;;
74293;SDS011;64044;59.904;10.738;2023-03-14T12:18:35;0.75;;;0.30;;
74293;SDS011;64044;59.904;10.738;2023-03-14T12:21:04;0.43;;;0.10;;
74293;SDS011;64044;59.904;10.738;2023-03-14T12:23:47;0.57;;;0.30;;
74293;SDS011;64044;59.904;10.738;2023-03-14T12:26:16;0.50;;;0.30;;
74293;SDS011;64044;59.904;10.738;2023-03-14T12:28:50;0.20;;;0.17;;
74293;SDS011;64044;59.904;10.738;2023-03-14T12:34:03;0.40;;;0.30;;
74293;SDS011;64044;59.904;10.738;2023-03-14T12:39:19;1.00;;;0.40;;
74293;SDS011;64044;59.904;10.738;2023-03-14T12:42:05;0.30;;;0.30;;
74293;SDS011;64044;59.904;10.738;2023-03-14T12:44:49;0.47;;;0.40;;
74293;SDS011;64044;59.904;10.738;2023-03-14T12:49:45;0.28;;;0.28;;
74293;SDS011;64044;59.904;10.738;2023-03-14T12:55:04;1.58;;;0.40;;
74293;SDS011;64044;59.904;10.738;2023-03-14T12:57:35;33.92;;;20.27;;
74293;SDS011;64044;59.904;10.738;2023-03-14T13:06:11;2.80;;;1.98;;
74293;SDS011;64044;59.904;10.738;2023-03-14T13:08:41;1.20;;;0.77;;
74293;SDS011;64044;59.904;10.738;2023-03-14T13:11:12;2.42;;;1.58;;
74293;SDS011;64044;59.904;10.738;2023-03-14T13:13:49;0.63;;;0.60;;
74293;SDS011;64044;59.904;10.738;2023-03-14T13:16:21;2.33;;;0.52;;
74293;SDS011;64044;59.904;10.738;2023-03-14T13:18:48;0.73;;;0.40;;
74293;SDS011;64044;59.904;10.738;2023-03-14T13:21:25;0.60;;;0.50;;
74293;SDS011;64044;59.904;10.738;2023-03-14T13:23:54;0.82;;;0.50;;
74293;SDS011;64044;59.904;10.738;2023-03-14T13:26:20;1.45;;;0.50;;
74293;SDS011;64044;59.904;10.738;2023-03-14T13:28:46;2.08;;;0.35;;
74293;SDS011;64044;59.904;10.738;2023-03-14T13:34:05;2.13;;;0.30;;
74293;SDS011;64044;59.904;10.738;2023-03-14T13:36:35;0.82;;;0.50;;
74293;SDS011;64044;59.904;10.738;2023-03-14T13:39:01;0.90;;;0.32;;
74293;SDS011;64044;59.904;10.738;2023-03-14T13:41:29;1.08;;;0.40;;
74293;SDS011;64044;59.904;10.738;2023-03-14T13:44:01;0.20;;;0.20;;
74293;SDS011;64044;59.904;10.738;2023-03-14T13:46:30;2.85;;;0.70;;
74293;SDS011;64044;59.904;10.738;2023-03-14T13:49:01;0.85;;;0.35;;
74293;SDS011;64044;59.904;10.738;2023-03-14T13:51:29;0.38;;;0.30;;
74293;SDS011;64044;59.904;10.738;2023-03-14T13:53:58;0.85;;;0.38;;
74293;SDS011;64044;59.904;10.738;2023-03-14T13:56:29;0.80;;;0.38;;
74293;SDS011;64044;59.904;10.738;2023-03-14T13:58:57;0.73;;;0.20;;
74293;SDS011;64044;59.904;10.738;2023-03-14T14:01:27;0.20;;;0.20;;
74293;SDS011;64044;59.904;10.738;2023-03-14T14:03:59;0.55;;;0.40;;
74293;SDS011;64044;59.904;10.738;2023-03-14T14:06:33;0.28;;;0.20;;
74293;SDS011;64044;59.904;10.738;2023-03-14T14:09:10;0.13;;;0.13;;
74293;SDS011;64044;59.904;10.738;2023-03-14T14:14:15;0.63;;;0.20;;
74293;SDS011;64044;59.904;10.738;2023-03-14T14:16:48;0.82;;;0.25;;
74293;SDS011;64044;59.904;10.738;2023-03-14T14:19:15;0.57;;;0.57;;
74293;SDS011;64044;59.904;10.738;2023-03-14T14:21:43;1.05;;;0.50;;
74293;SDS011;64044;59.904;10.738;2023-03-14T14:24:11;1.33;;;0.43;;
74293;SDS011;64044;59.904;10.738;2023-03-14T14:26:40;2.78;;;0.50;;
74293;SDS011;64044;59.904;10.738;2023-03-14T14:29:06;0.25;;;0.20;;
74293;SDS011;64044;59.904;10.738;2023-03-14T14:31:45;0.20;;;0.20;;
74293;SDS011;64044;59.904;10.738;2023-03-14T14:34:18;0.40;;;0.25;;
74293;SDS011;64044;59.904;10.738;2023-03-14T14:36:44;0.90;;;0.40;;
74293;SDS011;64044;59.904;10.738;2023-03-14T14:41:48;1.45;;;0.40;;
74293;SDS011;64044;59.904;10.738;2023-03-14T14:44:16;0.32;;;0.30;;
74293;SDS011;64044;59.904;10.738;2023-03-14T14:46:52;0.63;;;0.40;;
74293;SDS011;64044;59.904;10.738;2023-03-14T14:49:19;0.35;;;0.35;;
74293;SDS011;64044;59.904;10.738;2023-03-14T14:51:49;2.22;;;0.60;;
74293;SDS011;64044;59.904;10.738;2023-03-14T14:56:50;0.77;;;0.40;;
74293;SDS011;64044;59.904;10.738;2023-03-14T14:59:22;0.52;;;0.20;;
74293;SDS011;64044;59.904;10.738;2023-03-14T15:01:50;0.82;;;0.30;;
74293;SDS011;64044;59.904;10.738;2023-03-14T15:06:46;0.60;;;0.40;;
74293;SDS011;64044;59.904;10.738;2023-03-14T15:09:14;2.65;;;0.60;;
74293;SDS011;64044;59.904;10.738;2023-03-14T15:11:41;0.50;;;0.40;;
74293;SDS011;64044;59.904;10.738;2023-03-14T15:14:07;0.95;;;0.40;;
74293;SDS011;64044;59.904;10.738;2023-03-14T15:16:33;1.13;;;0.40;;
74293;SDS011;64044;59.904;10.738;2023-03-14T15:19:00;0.30;;;0.30;;
74293;SDS011;64044;59.904;10.738;2023-03-14T15:23:56;2.10;;;0.40;;
74293;SDS011;64044;59.904;10.738;2023-03-14T15:26:22;0.22;;;0.20;;
74293;SDS011;64044;59.904;10.738;2023-03-14T15:28:52;0.65;;;0.30;;
74293;SDS011;64044;59.904;10.738;2023-03-14T15:31:18;0.45;;;0.30;;
74293;SDS011;64044;59.904;10.738;2023-03-14T15:33:46;0.40;;;0.30;;
74293;SDS011;64044;59.904;10.738;2023-03-14T15:36:19;0.30;;;0.25;;
74293;SDS011;64044;59.904;10.738;2023-03-14T15:38:51;0.28;;;0.28;;
74293;SDS011;64044;59.904;10.738;2023-03-14T15:41:18;0.30;;;0.30;;
74293;SDS011;64044;59.904;10.738;2023-03-14T15:43:44;0.90;;;0.30;;
74293;SDS011;64044;59.904;10.738;2023-03-14T15:46:10;0.75;;;0.20;;
74293;SDS011;64044;59.904;10.738;2023-03-14T15:48:37;0.60;;;0.25;;
74293;SDS011;64044;59.904;10.738;2023-03-14T15:51:03;0.32;;;0.30;;
74293;SDS011;64044;59.904;10.738;2023-03-14T15:53:29;0.82;;;0.30;;
74293;SDS011;64044;59.904;10.738;2023-03-14T15:55:54;0.35;;;0.30;;
74293;SDS011;64044;59.904;10.738;2023-03-14T15:58:20;0.80;;;0.10;;
74293;SDS011;64044;59.904;10.738;2023-03-14T16:00:46;3.22;;;0.55;;
74293;SDS011;64044;59.904;10.738;2023-03-14T16:03:12;0.35;;;0.30;;
74293;SDS011;64044;59.904;10.738;2023-03-14T16:05:39;1.75;;;0.47;;
74293;SDS011;64044;59.904;10.738;2023-03-14T16:08:05;0.88;;;0.50;;
74293;SDS011;64044;59.904;10.738;2023-03-14T16:10:31;0.45;;;0.45;;